Time;durP1;ratioP1;P1;durP2;ratioP2;P2;SDS_P1;SDS_P2;PMS_P1;PMS_P2;Temp;Humidity;BMP_temperature;BMP_pressure;BME280_temperature;BME280_humidity;BME280_pressure;Samples;Min_cycle;Max_cycle;Signal;HPM_P1;HPM_P2
2023/03/06 00:02:18;;;;;;;21.65;14.63;;;;;;;10.30;77.50;100773.47;5050281;28;20111;-85
2023/03/06 00:04:43;;;;;;;23.58;15.43;;;;;;;10.38;77.77;100790.47;5070387;28;20485;-85
2023/03/06 00:07:09;;;;;;;24.30;15.38;;;;;;;10.47;77.43;100806.63;5067634;28;20021;-85
2023/03/06 00:09:34;;;;;;;23.50;14.98;;;;;;;10.03;77.45;100724.13;5069549;28;20089;-86
2023/03/06 00:12:00;;;;;;;22.08;14.95;;;;;;;10.18;77.46;100751.09;5051468;28;20449;-87
2023/03/06 00:14:25;;;;;;;23.08;15.18;;;;;;;10.23;77.43;100766.13;5057245;28;20032;-87
2023/03/06 00:16:54;;;;;;;23.63;15.27;;;;;;;10.32;77.52;100777.97;5051203;28;20036;-87
2023/03/06 00:19:21;;;;;;;22.83;14.32;;;;;;;10.38;77.28;100785.25;5044006;28;20528;-86
2023/03/06 00:21:47;;;;;;;21.58;14.07;;;;;;;10.16;77.49;100744.91;5052242;28;20055;-85
2023/03/06 00:24:12;;;;;;;23.58;14.68;;;;;;;10.36;77.31;100773.81;5069499;28;20502;-86
2023/03/06 00:26:40;;;;;;;23.63;15.07;;;;;;;10.04;76.88;100728.56;5069189;28;20028;-87
2023/03/06 00:29:06;;;;;;;21.70;14.38;;;;;;;10.35;77.57;100783.38;5071547;28;20064;-87
2023/03/06 00:31:32;;;;;;;21.83;14.35;;;;;;;10.05;77.09;100727.72;5068961;28;20036;-87
2023/03/06 00:33:57;;;;;;;20.58;13.88;;;;;;;10.14;77.49;100745.63;5048020;28;20037;-86
2023/03/06 00:36:23;;;;;;;21.45;13.95;;;;;;;10.24;77.32;100766.16;5071635;28;20049;-86
2023/03/06 00:38:49;;;;;;;21.50;14.35;;;;;;;10.23;77.29;100761.78;5053245;28;20628;-86
2023/03/06 00:41:14;;;;;;;22.25;14.25;;;;;;;10.23;77.08;100767.00;5054756;28;20028;-87
2023/03/06 00:43:40;;;;;;;21.83;14.00;;;;;;;10.24;77.19;100774.00;5054816;28;20035;-87
2023/03/06 00:46:06;;;;;;;20.05;13.38;;;;;;;10.21;77.13;100772.97;5053258;28;20044;-86
2023/03/06 00:48:32;;;;;;;22.35;14.05;;;;;;;10.28;77.38;100794.25;5053675;28;20570;-87
2023/03/06 00:50:58;;;;;;;22.42;13.38;;;;;;;10.19;77.25;100793.75;5037901;28;20036;-87
2023/03/06 00:53:23;;;;;;;21.05;13.93;;;;;;;10.36;77.35;100832.16;5046642;28;20086;-86
2023/03/06 00:55:50;;;;;;;20.40;13.32;;;;;;;10.31;77.30;100823.16;5054461;28;20119;-87
2023/03/06 00:58:15;;;;;;;21.13;13.27;;;;;;;10.37;77.42;100838.25;5068456;28;20029;-87
2023/03/06 01:00:42;;;;;;;23.02;13.90;;;;;;;10.39;77.67;100842.78;5071466;28;20047;-87
2023/03/06 01:03:08;;;;;;;21.73;13.93;;;;;;;10.29;77.81;100839.53;5054227;28;20508;-86
2023/03/06 01:05:36;;;;;;;20.90;13.15;;;;;;;10.22;77.83;100825.22;5054200;28;20029;-86
2023/03/06 01:08:02;;;;;;;21.42;13.32;;;;;;;10.37;77.48;100851.31;5054132;28;20606;-86
2023/03/06 01:10:28;;;;;;;20.75;13.75;;;;;;;10.05;77.71;100810.31;5053306;28;20036;-86
2023/03/06 01:12:54;;;;;;;19.73;12.95;;;;;;;10.35;77.81;100860.75;5053432;28;20524;-87
2023/03/06 01:15:20;;;;;;;19.80;13.35;;;;;;;10.30;77.80;100860.50;5071588;28;20035;-86
2023/03/06 01:17:46;;;;;;;19.40;12.93;;;;;;;10.11;77.28;100827.22;5068954;28;20060;-87
2023/03/06 01:20:13;;;;;;;21.02;13.05;;;;;;;10.38;77.59;100866.16;5070661;28;20028;-87
2023/03/06 01:22:39;;;;;;;20.92;13.32;;;;;;;10.11;77.76;100831.53;5053988;28;20067;-86
2023/03/06 01:25:05;;;;;;;19.20;12.80;;;;;;;10.07;77.92;100820.03;5070703;28;20072;-86
2023/03/06 01:27:31;;;;;;;19.50;13.13;;;;;;;10.36;77.86;100865.19;5068641;28;20047;-87
2023/03/06 01:29:56;;;;;;;18.65;12.45;;;;;;;10.32;77.99;100856.28;5069511;28;20039;-86
2023/03/06 01:32:22;;;;;;;20.80;12.55;;;;;;;10.08;77.98;100826.16;5071814;28;20474;-86
2023/03/06 01:34:48;;;;;;;19.90;12.88;;;;;;;10.34;77.53;100877.25;5054449;28;20027;-86
2023/03/06 01:37:14;;;;;;;19.02;12.90;;;;;;;10.30;77.67;100860.50;5053449;28;20402;-86
2023/03/06 01:39:39;;;;;;;19.17;12.82;;;;;;;10.33;77.95;100886.81;5053430;28;20034;-86
2023/03/06 01:42:05;;;;;;;18.63;12.25;;;;;;;10.28;77.71;100869.03;5070564;28;20036;-86
2023/03/06 01:44:31;;;;;;;20.08;12.38;;;;;;;10.31;77.83;100877.97;5063925;28;20543;-86
2023/03/06 01:46:56;;;;;;;17.50;11.60;;;;;;;10.12;77.62;100854.22;5032497;28;20024;-85
2023/03/06 01:49:30;;;;;;;17.23;11.73;;;;;;;10.04;77.59;100839.84;5049676;28;20421;-86
2023/03/06 01:52:00;;;;;;;19.08;12.30;;;;;;;10.10;77.99;100859.34;5045384;28;20082;-86
2023/03/06 01:54:28;;;;;;;18.77;12.27;;;;;;;10.31;77.51;100903.19;5052451;28;20081;-87
2023/03/06 01:57:09;;;;;;;17.67;12.23;;;;;;;10.14;77.69;100869.16;5050554;28;20025;-86
2023/03/06 01:59:36;;;;;;;20.15;12.90;;;;;;;10.27;77.40;100888.13;5052756;28;20050;-86
2023/03/06 02:02:04;;;;;;;19.52;12.77;;;;;;;10.30;77.79;100902.28;5053175;28;20107;-86
2023/03/06 02:04:30;;;;;;;18.00;11.73;;;;;;;9.89;77.24;100826.81;5054000;28;20028;-86
2023/03/06 02:06:58;;;;;;;18.70;12.13;;;;;;;10.09;77.35;100862.75;5069054;28;20036;-86
2023/03/06 02:09:28;;;;;;;18.52;11.98;;;;;;;9.86;77.44;100827.53;5051201;28;20028;-85
2023/03/06 02:11:54;;;;;;;18.30;12.45;;;;;;;10.28;77.51;100897.75;5050426;28;20103;-87
2023/03/06 02:14:20;;;;;;;19.95;11.82;;;;;;;9.99;77.31;100852.63;5053235;28;20120;-86
2023/03/06 02:16:45;;;;;;;16.90;11.40;;;;;;;9.81;77.71;100817.66;5067398;28;20041;-86
2023/03/06 02:19:28;;;;;;;18.17;11.60;;;;;;;10.29;77.31;100904.78;5037176;28;20032;-86
2023/03/06 02:21:54;;;;;;;18.05;11.68;;;;;;;10.05;77.45;100879.03;5070193;28;20054;-86
2023/03/06 02:24:34;;;;;;;18.25;11.68;;;;;;;10.09;77.43;100883.63;5051821;28;20048;-85
2023/03/06 02:27:02;;;;;;;15.93;11.05;;;;;;;10.22;77.53;100907.84;5050857;28;20555;-86
2023/03/06 02:29:29;;;;;;;17.05;11.60;;;;;;;10.26;77.59;100922.84;5049981;28;20040;-86
2023/03/06 02:31:55;;;;;;;18.20;11.68;;;;;;;10.23;77.30;100910.53;5052769;28;20059;-87
2023/03/06 02:34:20;;;;;;;17.58;12.13;;;;;;;10.25;77.30;100928.91;5069853;28;20060;-85
2023/03/06 02:36:49;;;;;;;16.87;11.53;;;;;;;9.94;76.97;100868.00;5069802;28;20086;-86
2023/03/06 02:39:17;;;;;;;17.23;11.63;;;;;;;9.92;77.42;100869.63;5069959;28;20309;-86
2023/03/06 02:41:43;;;;;;;19.17;11.52;;;;;;;10.05;77.19;100883.38;5052583;28;20041;-86
2023/03/06 02:44:14;;;;;;;15.93;10.85;;;;;;;10.12;77.49;100903.81;5069416;28;20473;-85
2023/03/06 02:46:40;;;;;;;17.88;11.27;;;;;;;10.08;76.93;100889.69;5068827;28;20080;-84
2023/03/06 02:49:05;;;;;;;16.02;11.18;;;;;;;10.19;77.04;100921.59;5059944;28;20025;-87
2023/03/06 02:51:31;;;;;;;16.75;11.18;;;;;;;10.27;76.56;100928.19;5059245;28;20504;-86
2023/03/06 02:53:57;;;;;;;16.75;11.23;;;;;;;10.15;77.00;100915.31;5054682;28;20032;-87
2023/03/06 02:56:22;;;;;;;17.13;11.60;;;;;;;10.10;76.76;100911.53;5057948;28;20486;-86
2023/03/06 02:58:48;;;;;;;16.52;11.38;;;;;;;10.29;77.35;100936.09;5068360;28;20040;-87
2023/03/06 03:01:14;;;;;;;18.52;12.30;;;;;;;9.77;77.37;100863.50;5049165;28;20422;-87
2023/03/06 03:03:40;;;;;;;17.38;11.48;;;;;;;10.22;77.21;100933.94;5068225;28;20017;-86
2023/03/06 03:06:07;;;;;;;17.00;11.25;;;;;;;10.20;77.38;100944.28;5052340;28;20032;-86
2023/03/06 03:08:33;;;;;;;16.88;11.18;;;;;;;10.19;77.51;100948.59;5069048;28;20031;-87
2023/03/06 03:10:59;;;;;;;;;;;;;;;10.26;77.34;100946.34;5052373;28;20474;-87
2023/03/06 03:13:24;;;;;;;18.33;11.85;;;;;;;10.21;77.57;100953.91;5051200;28;19915;-87
2023/03/06 03:16:01;;;;;;;17.98;12.20;;;;;;;10.07;77.55;100927.00;5068107;28;20035;-87
2023/03/06 03:18:27;;;;;;;;;;;;;;;10.22;77.55;100946.97;5049487;28;20095;-87
2023/03/06 03:20:53;;;;;;;18.13;11.52;;;;;;;10.09;77.62;100934.94;5042548;28;19913;-87
2023/03/06 03:23:18;;;;;;;16.83;11.68;;;;;;;9.93;77.67;100923.59;5050820;28;20028;-87
2023/03/06 03:25:44;;;;;;;17.20;11.23;;;;;;;9.85;77.41;100908.31;5052425;28;20053;-87
2023/03/06 03:28:09;;;;;;;17.70;11.52;;;;;;;9.88;77.37;100916.31;5055382;28;20036;-87
2023/03/06 03:30:35;;;;;;;17.33;11.02;;;;;;;10.04;77.39;100947.72;5058059;28;20035;-86
2023/03/06 03:33:01;;;;;;;15.52;11.20;;;;;;;9.73;77.50;100898.94;5066874;28;20036;-87
2023/03/06 03:35:26;;;;;;;16.55;11.32;;;;;;;9.86;77.28;100923.13;5069616;28;20508;-87
2023/03/06 03:37:53;;;;;;;16.92;11.00;;;;;;;9.78;77.27;100907.94;5068359;28;20067;-86
2023/03/06 03:40:19;;;;;;;18.27;11.65;;;;;;;9.98;77.36;100945.63;5052921;28;20485;-85
2023/03/06 03:42:44;;;;;;;17.20;11.43;;;;;;;9.84;77.42;100920.47;5069765;28;20032;-86
2023/03/06 03:45:10;;;;;;;16.58;10.82;;;;;;;10.08;77.48;100970.56;5052354;28;20100;-86
2023/03/06 03:47:36;;;;;;;16.73;11.18;;;;;;;10.13;77.61;100976.03;5050181;28;20056;-85
2023/03/06 03:50:02;;;;;;;15.75;10.75;;;;;;;10.04;77.44;100960.75;5051834;28;20036;-86
2023/03/06 03:52:27;;;;;;;17.40;11.68;;;;;;;9.87;77.81;100938.00;5050443;28;20028;-87
2023/03/06 03:54:53;;;;;;;16.85;11.00;;;;;;;9.83;77.52;100923.88;5051009;28;20044;-87
2023/03/06 03:57:19;;;;;;;14.98;10.75;;;;;;;9.99;77.70;100957.00;5035304;28;20428;-88
2023/03/06 03:59:44;;;;;;;14.93;10.57;;;;;;;10.15;77.68;100990.09;5048533;28;20543;-87
2023/03/06 04:02:10;;;;;;;17.52;11.45;;;;;;;10.06;77.11;100966.06;5051432;28;20028;-86
2023/03/06 04:04:35;;;;;;;15.18;10.70;;;;;;;10.04;77.62;100968.59;5054932;28;20059;-87
2023/03/06 04:07:03;;;;;;;16.00;10.73;;;;;;;10.09;77.59;100980.19;5055707;28;20074;-85
2023/03/06 04:09:29;;;;;;;16.50;10.60;;;;;;;10.14;77.37;100996.13;5053103;28;20029;-87
2023/03/06 04:11:54;;;;;;;16.25;11.10;;;;;;;10.16;77.04;100991.91;5072929;28;20094;-86
2023/03/06 04:14:20;;;;;;;14.75;10.52;;;;;;;10.14;77.40;100994.41;5072436;28;20107;-86
2023/03/06 04:16:46;;;;;;;15.18;10.77;;;;;;;9.90;77.38;100953.81;5072322;28;20059;-86
2023/03/06 04:19:11;;;;;;;14.55;10.07;;;;;;;9.78;77.70;100940.97;5039599;28;20029;-86
2023/03/06 04:21:37;;;;;;;15.38;10.57;;;;;;;10.15;76.97;100990.09;5055275;28;20383;-86
2023/03/06 04:24:03;;;;;;;16.17;10.50;;;;;;;10.10;76.91;100992.44;5054061;28;20033;-88
2023/03/06 04:26:28;;;;;;;15.23;10.65;;;;;;;10.03;76.99;100984.13;5038074;28;20028;-86
2023/03/06 04:28:55;;;;;;;16.95;10.80;;;;;;;10.06;77.13;100980.00;5068590;28;20034;-87
2023/03/06 04:31:21;;;;;;;15.75;10.20;;;;;;;10.13;76.75;101000.44;5054588;28;20115;-87
2023/03/06 04:33:46;;;;;;;16.02;10.45;;;;;;;9.90;77.11;100961.63;5055520;28;20083;-87
2023/03/06 04:36:30;;;;;;;16.50;10.75;;;;;;;10.07;77.22;100999.16;5054668;28;20032;-86
2023/03/06 04:38:56;;;;;;;15.70;10.63;;;;;;;10.01;76.93;100978.81;5055596;28;20151;-86
2023/03/06 04:41:22;;;;;;;16.92;10.52;;;;;;;9.92;76.72;100965.22;5038812;28;20124;-87
2023/03/06 04:43:47;;;;;;;14.80;9.85;;;;;;;9.99;76.73;100970.03;5073746;28;20028;-86
2023/03/06 04:46:13;;;;;;;15.20;9.93;;;;;;;9.83;76.81;100949.06;5068161;28;20036;-87
2023/03/06 04:48:39;;;;;;;15.77;10.10;;;;;;;10.08;76.86;100991.44;5055773;28;20033;-87
2023/03/06 04:51:08;;;;;;;16.13;10.05;;;;;;;10.11;76.78;101009.88;5055677;28;20489;-87
2023/03/06 04:53:34;;;;;;;14.43;9.93;;;;;;;9.64;77.04;100918.38;5056199;28;20063;-87
2023/03/06 04:55:59;;;;;;;15.13;10.13;;;;;;;9.90;77.43;100985.13;5052170;28;20032;-87
2023/03/06 04:58:25;;;;;;;14.43;9.60;;;;;;;10.03;77.75;101005.91;5038630;28;20029;-86
2023/03/06 05:00:50;;;;;;;15.80;10.50;;;;;;;9.96;77.53;100999.41;5055143;28;20485;-86
2023/03/06 05:03:16;;;;;;;16.15;9.85;;;;;;;9.91;77.60;100993.03;5051228;28;20040;-86
2023/03/06 05:08:26;;;;;;;14.35;10.38;;;;;;;10.07;77.17;101022.66;5072989;28;20044;-87
2023/03/06 05:10:57;;;;;;;14.15;9.90;;;;;;;10.08;77.26;101029.69;5054962;28;20032;-87
2023/03/06 05:13:23;;;;;;;15.05;9.88;;;;;;;10.01;76.81;101012.72;5049861;28;20429;-87
2023/03/06 05:15:48;;;;;;;14.25;10.27;;;;;;;9.87;77.03;101000.59;5052721;28;20035;-86
2023/03/06 05:18:14;;;;;;;14.48;9.70;;;;;;;10.06;77.01;101029.59;5057758;28;20040;-87
2023/03/06 05:20:40;;;;;;;15.45;9.93;;;;;;;9.89;76.94;101020.75;5051917;28;20044;-87
2023/03/06 05:23:05;;;;;;;14.05;9.60;;;;;;;10.05;76.74;101038.19;5042511;28;20040;-87
2023/03/06 05:25:31;;;;;;;13.43;9.77;;;;;;;10.08;76.61;101050.56;5052189;28;20073;-87
2023/03/06 05:27:57;;;;;;;13.90;9.57;;;;;;;9.83;76.96;101020.38;5067379;28;20134;-88
2023/03/06 05:30:24;;;;;;;13.93;9.63;;;;;;;10.01;77.05;101062.31;5051145;28;20058;-88
2023/03/06 05:32:49;;;;;;;14.90;9.95;;;;;;;9.82;77.03;101018.56;5035096;28;20555;-89
2023/03/06 05:35:20;;;;;;;12.48;9.05;;;;;;;9.87;76.88;101016.25;5052135;28;20066;-88
2023/03/06 05:37:46;;;;;;;14.13;9.40;;;;;;;10.03;76.94;101055.47;5057190;28;20520;-87
2023/03/06 05:40:12;;;;;;;12.75;9.07;;;;;;;9.84;77.20;101021.25;5052097;28;20056;-87
2023/03/06 05:42:39;;;;;;;13.52;9.38;;;;;;;10.05;76.90;101059.06;5060763;28;20032;-88
2023/03/06 05:45:05;;;;;;;15.45;10.00;;;;;;;9.83;76.78;101009.94;5053134;28;20055;-86
2023/03/06 05:47:31;;;;;;;14.45;9.95;;;;;;;10.06;76.97;101062.59;5037578;28;20482;-86
2023/03/06 05:49:57;;;;;;;14.30;9.68;;;;;;;9.87;77.08;101042.31;5068233;28;20144;-88
2023/03/06 05:52:29;;;;;;;14.88;9.68;;;;;;;9.99;76.94;101067.44;5052589;28;20116;-88
2023/03/06 05:54:55;;;;;;;14.50;9.82;;;;;;;10.01;77.04;101066.63;5067983;28;20032;-86
2023/03/06 05:57:22;;;;;;;14.85;9.25;;;;;;;9.88;77.22;101054.53;5068880;28;20048;-86
2023/03/06 05:59:52;;;;;;;14.63;9.70;;;;;;;9.74;77.23;101030.25;5075872;28;20033;-86
2023/03/06 06:02:18;;;;;;;14.25;9.73;;;;;;;9.96;77.17;101079.41;5056370;28;20070;-86
2023/03/06 06:04:44;;;;;;;12.80;9.27;;;;;;;9.84;77.33;101052.56;5043944;28;20020;-86
2023/03/06 06:07:13;;;;;;;13.68;9.10;;;;;;;10.00;76.95;101084.00;5049679;28;20379;-86
2023/03/06 06:09:38;;;;;;;14.38;9.57;;;;;;;9.67;77.05;101018.53;5050049;28;20024;-86
2023/03/06 06:12:04;;;;;;;14.25;9.52;;;;;;;9.80;77.29;101056.69;5067154;28;20085;-85
2023/03/06 06:14:33;;;;;;;13.07;9.35;;;;;;;9.99;76.99;101097.88;5031572;28;20035;-85
2023/03/06 06:16:59;;;;;;;13.30;9.05;;;;;;;9.96;76.89;101095.94;5068011;28;20024;-87
2023/03/06 06:19:25;;;;;;;;;;;;;;;10.00;77.18;101099.66;5068297;28;20032;-87
2023/03/06 06:21:52;;;;;;;13.25;9.10;;;;;;;9.68;77.36;101053.34;5028807;28;19920;-85
2023/03/06 06:24:20;;;;;;;12.63;9.20;;;;;;;9.96;77.28;101110.72;5039849;28;20045;-87
2023/03/06 06:26:46;;;;;;;12.95;9.38;;;;;;;9.85;77.12;101099.59;5068635;28;20020;-86
2023/03/06 06:29:12;;;;;;;15.02;9.15;;;;;;;9.80;76.96;101093.22;5050373;28;20047;-87
2023/03/06 06:31:38;;;;;;;15.05;9.60;;;;;;;9.97;76.85;101117.75;5047313;28;20048;-86
2023/03/06 06:34:05;;;;;;;13.50;9.40;;;;;;;9.96;76.89;101128.97;5056870;28;20486;-87
2023/03/06 06:36:31;;;;;;;12.80;9.13;;;;;;;9.95;77.33;101127.19;5056975;28;20059;-87
2023/03/06 06:38:57;;;;;;;;;;;;;;;9.98;77.20;101128.25;5032207;28;20410;-86
2023/03/06 06:41:23;;;;;;;13.15;8.90;;;;;;;9.97;77.38;101129.06;5050795;28;19923;-86
2023/03/06 06:43:48;;;;;;;13.65;9.45;;;;;;;9.82;77.21;101115.09;5050954;28;20052;-87
2023/03/06 06:46:14;;;;;;;14.55;9.60;;;;;;;9.92;77.26;101133.06;5048693;28;20038;-86
2023/03/06 06:48:40;;;;;;;15.80;10.40;;;;;;;9.69;77.62;101105.56;5023443;28;20039;-87
2023/03/06 06:51:05;;;;;;;14.18;9.80;;;;;;;9.89;77.69;101142.44;5062216;28;20068;-87
2023/03/06 06:53:32;;;;;;;14.13;9.85;;;;;;;9.87;77.08;101133.63;5033610;28;20490;-87
2023/03/06 06:55:58;;;;;;;15.32;9.65;;;;;;;9.76;77.03;101114.69;5059835;28;20111;-87
2023/03/06 06:58:24;;;;;;;;;;;;;;;9.94;77.19;101147.13;5053466;28;20474;-88
2023/03/06 07:00:49;;;;;;;14.65;9.85;;;;;;;9.47;77.50;101073.75;5053054;28;19915;-87
2023/03/06 07:03:15;;;;;;;14.60;9.98;;;;;;;9.67;77.56;101112.41;5053170;28;20085;-87
2023/03/06 07:05:41;;;;;;;13.02;9.07;;;;;;;9.60;77.20;101096.28;5052848;28;20058;-86
2023/03/06 07:08:07;;;;;;;14.18;9.70;;;;;;;9.93;77.47;101150.56;5070812;28;20036;-85
2023/03/06 07:10:34;;;;;;;15.40;9.90;;;;;;;9.54;77.34;101082.03;5052858;28;20032;-86
2023/03/06 07:13:01;;;;;;;16.13;10.27;;;;;;;9.93;77.35;101154.88;5059642;28;20119;-86
2023/03/06 07:15:28;;;;;;;15.40;10.30;;;;;;;9.43;76.85;101066.53;5057575;28;20060;-87
2023/03/06 07:17:54;;;;;;;14.63;10.13;;;;;;;9.48;77.08;101080.75;5052699;28;20028;-87
2023/03/06 07:20:20;;;;;;;14.18;9.27;;;;;;;9.78;77.37;101123.50;5063604;28;20063;-87
2023/03/06 07:22:46;;;;;;;14.63;9.57;;;;;;;9.73;77.35;101120.59;5046981;28;20040;-88
2023/03/06 07:25:11;;;;;;;15.15;10.13;;;;;;;9.83;77.64;101136.84;5052781;28;20521;-87
2023/03/06 07:27:37;;;;;;;14.45;9.80;;;;;;;9.94;77.44;101149.72;5052803;28;20386;-86
2023/03/06 07:30:03;;;;;;;15.32;10.73;;;;;;;9.74;77.39;101117.19;5052627;28;20413;-86
2023/03/06 07:32:29;;;;;;;;;;;;;;;9.89;77.25;101153.78;5053308;28;20028;-88
2023/03/06 07:34:55;;;;;;;14.90;9.70;;;;;;;9.44;77.33;101087.50;5069295;28;19914;-88
2023/03/06 07:37:21;;;;;;;16.38;10.20;;;;;;;9.50;77.46;101085.28;5055143;28;20036;-87
2023/03/06 07:39:46;;;;;;;14.38;9.90;;;;;;;9.79;77.55;101143.56;5060597;28;20078;-86
2023/03/06 07:42:13;;;;;;;14.30;9.90;;;;;;;9.87;77.75;101157.09;5074726;28;20115;-87
2023/03/06 07:44:38;;;;;;;14.95;10.30;;;;;;;9.74;77.68;101137.16;5056949;28;20024;-88
2023/03/06 07:47:05;;;;;;;16.88;10.35;;;;;;;9.78;77.26;101134.84;5065212;28;20039;-87
2023/03/06 07:49:34;;;;;;;15.48;9.82;;;;;;;9.88;77.47;101153.66;5056642;28;20032;-88
2023/03/06 07:52:00;;;;;;;14.88;10.13;;;;;;;9.77;77.66;101139.94;5039962;28;20032;-88
2023/03/06 07:54:25;;;;;;;;;;;;;;;9.89;77.77;101158.09;5040966;28;20063;-88
2023/03/06 07:56:53;;;;;;;23.17;13.98;;;;;;;9.45;72.94;101104.91;5057522;28;19952;-87
2023/03/06 07:59:18;;;;;;;35.88;17.60;;;;;;;9.91;74.28;101164.31;5057503;28;20062;-82
2023/03/06 08:01:44;;;;;;;144.68;22.10;;;;;;;10.09;72.00;101165.44;5078288;28;20107;-86
2023/03/06 08:04:10;;;;;;;84.22;21.45;;;;;;;9.66;69.48;101126.25;5059753;28;20516;-87
2023/03/06 08:06:35;;;;;;;53.75;17.63;;;;;;;9.78;72.60;101153.09;5079830;28;20497;-88
2023/03/06 08:09:14;;;;;;;57.83;16.70;;;;;;;9.57;73.51;101118.75;5038301;28;20040;-88
2023/03/06 08:11:40;;;;;;;39.65;15.50;;;;;;;9.89;73.06;101168.53;5056573;28;20086;-87
2023/03/06 08:14:05;;;;;;;46.53;15.57;;;;;;;9.81;73.53;101133.25;5068993;28;20028;-86
2023/03/06 08:16:32;;;;;;;45.28;15.90;;;;;;;9.67;73.41;101108.88;5054370;28;20052;-86
2023/03/06 08:18:59;;;;;;;42.72;15.48;;;;;;;10.06;73.70;101178.31;5058103;28;20547;-88
2023/03/06 08:21:26;;;;;;;37.70;15.75;;;;;;;10.05;73.70;101160.84;5060024;28;20115;-88
2023/03/06 08:23:52;;;;;;;37.90;15.00;;;;;;;9.83;73.74;101126.41;5057330;28;20036;-87
2023/03/06 08:26:33;;;;;;;39.03;15.35;;;;;;;9.97;74.20;101157.78;5072988;28;20058;-88
2023/03/06 08:29:00;;;;;;;39.22;15.18;;;;;;;10.09;73.99;101175.88;5059964;28;20060;-88
2023/03/06 08:31:32;;;;;;;35.58;15.55;;;;;;;9.86;74.16;101145.75;5072015;28;20024;-88
2023/03/06 08:34:00;;;;;;;31.92;14.95;;;;;;;9.87;74.04;101150.16;5060215;28;20103;-87
2023/03/06 08:36:25;;;;;;;35.03;14.90;;;;;;;10.10;73.97;101187.25;5058922;28;20028;-88
2023/03/06 08:38:56;;;;;;;39.38;15.10;;;;;;;10.12;74.36;101194.34;5058567;28;20054;-88
2023/03/06 08:41:23;;;;;;;37.15;15.18;;;;;;;10.13;74.13;101195.25;5048252;28;20086;-88
2023/03/06 08:43:49;;;;;;;37.58;15.30;;;;;;;10.15;74.61;101198.84;5056088;28;20028;-87
2023/03/06 08:46:17;;;;;;;35.50;15.13;;;;;;;10.03;74.45;101175.50;5061153;28;20021;-87
2023/03/06 08:48:47;;;;;;;33.88;15.48;;;;;;;10.06;74.29;101188.75;5058259;28;20034;-87
2023/03/06 08:51:15;;;;;;;37.70;14.38;;;;;;;10.08;74.44;101192.34;5059971;28;20048;-88
2023/03/06 08:53:41;;;;;;;32.47;15.02;;;;;;;10.11;74.26;101195.16;5060722;28;20414;-88
2023/03/06 08:56:14;;;;;;;31.08;15.30;;;;;;;10.03;74.20;101180.72;5060630;28;20032;-88
2023/03/06 08:58:40;;;;;;;32.97;15.70;;;;;;;10.13;74.34;101200.47;5076102;28;20054;-89
2023/03/06 09:01:12;;;;;;;34.53;15.00;;;;;;;9.83;74.50;101134.22;5060426;28;20500;-87
2023/03/06 09:03:38;;;;;;;36.53;15.90;;;;;;;10.12;70.94;101186.53;5049053;28;20037;-86
2023/03/06 09:06:03;;;;;;;37.25;17.00;;;;;;;9.89;67.89;101126.78;5056677;28;20035;-85
2023/03/06 09:08:29;;;;;;;33.05;16.65;;;;;;;10.02;63.55;101197.19;5094778;28;20084;-89
2023/03/06 09:10:54;;;;;;;28.65;15.95;;;;;;;9.50;61.06;101106.13;5063075;28;20033;-84
2023/03/06 09:13:21;;;;;;;39.53;16.98;;;;;;;10.01;62.53;101191.88;5056422;28;20490;-84
2023/03/06 09:15:47;;;;;;;34.63;16.73;;;;;;;9.84;60.78;101144.78;5058550;28;20040;-83
2023/03/06 09:18:12;;;;;;;32.92;16.80;;;;;;;9.73;64.67;101120.59;5073460;28;20032;-83
2023/03/06 09:20:38;;;;;;;31.15;16.80;;;;;;;9.77;65.00;101121.69;5055445;28;20490;-84
2023/03/06 09:23:03;;;;;;;31.65;16.33;;;;;;;10.01;59.63;101150.13;5073572;28;20418;-83
2023/03/06 09:25:29;;;;;;;28.85;15.65;;;;;;;10.11;61.63;101181.19;5041831;28;20045;-86
2023/03/06 09:27:55;;;;;;;28.55;16.45;;;;;;;10.00;65.02;101183.13;5056478;28;20020;-84
2023/03/06 09:30:20;;;;;;;28.65;16.00;;;;;;;9.84;62.13;101160.41;5056732;28;20399;-86
2023/03/06 09:32:46;;;;;;;31.75;15.05;;;;;;;9.73;64.36;101140.56;5026956;28;20044;-86
2023/03/06 09:35:13;;;;;;;28.65;15.48;;;;;;;9.56;61.97;101103.88;5038187;28;20115;-85
2023/03/06 09:37:39;;;;;;;27.77;16.02;;;;;;;10.03;65.32;101185.03;5073630;28;20024;-81
2023/03/06 09:40:06;;;;;;;26.63;16.00;;;;;;;10.01;64.56;101187.53;5054354;28;20070;-85
2023/03/06 09:42:32;;;;;;;30.70;15.82;;;;;;;9.96;64.65;101188.97;5055351;28;20043;-84
2023/03/06 09:44:58;;;;;;;;;;;;;;;9.99;64.95;101186.56;5043545;28;20474;-82
2023/03/06 09:47:57;;;;;;;29.27;16.35;;;;;;;9.96;64.21;101183.75;5025251;28;19931;-83
2023/03/06 09:50:38;;;;;;;34.58;17.77;;;;;;;10.05;63.92;101183.44;5056560;28;20029;-84
2023/03/06 09:53:23;;;;;;;31.13;16.75;;;;;;;10.05;65.34;101184.31;5065308;28;20123;-87
2023/03/06 09:56:00;;;;;;;34.22;17.50;;;;;;;9.83;65.60;101140.34;5075097;28;20028;-87
2023/03/06 09:58:28;;;;;;;29.70;16.90;;;;;;;10.06;66.16;101185.25;5059614;28;20047;-87
2023/03/06 10:01:06;;;;;;;33.22;16.70;;;;;;;10.07;66.99;101187.94;5059053;28;20016;-88
2023/03/06 10:03:43;;;;;;;33.63;16.58;;;;;;;10.08;67.66;101187.13;5052235;28;20039;-88
2023/03/06 10:06:24;;;;;;;29.10;17.02;;;;;;;10.09;67.97;101181.09;5066493;28;20024;-87
2023/03/06 10:09:19;;;;;;;30.02;16.70;;;;;;;10.09;68.25;101177.59;5063989;28;20016;-87
2023/03/06 10:11:54;;;;;;;31.17;16.98;;;;;;;10.08;68.71;101171.47;5054473;28;20024;-88
2023/03/06 10:14:44;;;;;;;28.20;16.50;;;;;;;10.13;69.04;101164.81;5055824;28;20030;-88
2023/03/06 10:17:18;;;;;;;31.70;16.95;;;;;;;9.82;69.06;101116.75;5061784;28;20504;-88
2023/03/06 10:19:48;;;;;;;33.08;16.83;;;;;;;10.13;69.43;101171.75;5058144;28;20104;-88
2023/03/06 10:22:32;;;;;;;31.63;17.05;;;;;;;10.14;69.55;101166.66;5075691;28;20035;-87
2023/03/06 10:25:23;;;;;;;30.73;16.73;;;;;;;10.14;69.56;101164.03;5068758;28;20048;-87
2023/03/06 10:28:10;;;;;;;30.48;16.92;;;;;;;10.18;69.74;101162.50;5066564;28;20025;-88
2023/03/06 10:31:06;;;;;;;31.45;17.55;;;;;;;10.17;70.17;101160.72;5060300;28;20035;-87
2023/03/06 10:33:41;;;;;;;29.70;17.15;;;;;;;10.17;70.41;101153.78;5071864;28;20032;-89
2023/03/06 10:36:12;;;;;;;30.10;16.73;;;;;;;9.98;70.63;101122.13;5056775;28;20034;-87
2023/03/06 10:38:39;;;;;;;30.30;16.52;;;;;;;10.16;70.45;101145.88;5053666;28;20507;-86
2023/03/06 10:41:20;;;;;;;31.40;16.45;;;;;;;10.00;70.87;101115.31;5058470;28;20493;-87
2023/03/06 10:43:58;;;;;;;27.77;16.45;;;;;;;10.19;70.64;101138.22;5053475;28;20032;-87
2023/03/06 10:46:33;;;;;;;28.45;16.55;;;;;;;10.22;71.07;101140.09;5070938;28;20024;-88
2023/03/06 10:49:02;;;;;;;29.50;17.13;;;;;;;10.06;70.95;101109.56;5052572;28;20031;-88
2023/03/06 10:51:29;;;;;;;30.27;16.23;;;;;;;10.23;71.00;101123.66;5053292;28;20577;-88
2023/03/06 10:54:14;;;;;;;30.00;16.58;;;;;;;10.23;71.25;101131.50;5036623;28;20043;-88
2023/03/06 10:56:41;;;;;;;30.75;16.60;;;;;;;10.15;71.18;101104.91;5071172;28;20050;-88
2023/03/06 10:59:10;;;;;;;28.27;16.30;;;;;;;10.23;71.30;101111.50;5036404;28;20058;-87
2023/03/06 11:01:35;;;;;;;28.45;16.17;;;;;;;10.24;71.69;101104.56;5070947;28;20035;-88
2023/03/06 11:04:24;;;;;;;28.80;16.13;;;;;;;10.22;71.63;101101.84;5052977;28;20028;-88
2023/03/06 11:07:14;;;;;;;26.80;15.90;;;;;;;10.23;71.73;101093.22;5053534;28;20029;-88
2023/03/06 11:09:59;;;;;;;29.35;16.33;;;;;;;10.15;71.85;101078.81;5053239;28;20578;-88
2023/03/06 11:12:29;;;;;;;30.33;16.23;;;;;;;10.24;71.73;101092.41;5052461;28;20619;-88
2023/03/06 11:15:13;;;;;;;27.77;16.70;;;;;;;10.24;71.78;101091.50;5053097;28;20035;-87
2023/03/06 11:17:57;;;;;;;29.20;16.02;;;;;;;10.24;71.97;101087.19;5053076;28;20035;-87
2023/03/06 11:20:43;;;;;;;27.50;15.73;;;;;;;10.17;72.25;101071.97;5053120;28;20544;-88
2023/03/06 11:23:15;;;;;;;29.42;16.08;;;;;;;10.28;72.32;101078.72;5053122;28;20028;-88
2023/03/06 11:25:49;;;;;;;26.92;15.90;;;;;;;10.22;72.13;101067.91;5057954;28;20561;-87